sensor_id;sensor_type;location;lat;lon;timestamp;temperature;humidity
28244;DHT22;15510;52.512;13.300;2023-03-02T00:04:40;2.30;99.90
28244;DHT22;15510;52.512;13.300;2023-03-02T00:07:11;2.30;99.90
28244;DHT22;15510;52.512;13.300;2023-03-02T00:09:39;2.20;99.90
28244;DHT22;15510;52.512;13.300;2023-03-02T00:12:06;2.20;99.90
28244;DHT22;15510;52.512;13.300;2023-03-02T00:14:32;2.10;99.90
28244;DHT22;15510;52.512;13.300;2023-03-02T00:16:58;2.10;99.90
28244;DHT22;15510;52.512;13.300;2023-03-02T00:19:23;2.10;99.90
28244;DHT22;15510;52.512;13.300;2023-03-02T00:21:49;2.10;99.90
28244;DHT22;15510;52.512;13.300;2023-03-02T00:24:15;2.00;99.90
28244;DHT22;15510;52.512;13.300;2023-03-02T00:26:41;2.00;99.90
28244;DHT22;15510;52.512;13.300;2023-03-02T00:29:07;2.00;99.90
28244;DHT22;15510;52.512;13.300;2023-03-02T00:31:33;2.00;99.90
28244;DHT22;15510;52.512;13.300;2023-03-02T00:33:59;2.00;99.90
28244;DHT22;15510;52.512;13.300;2023-03-02T00:36:25;2.00;99.90
28244;DHT22;15510;52.512;13.300;2023-03-02T00:38:51;2.00;99.90
28244;DHT22;15510;52.512;13.300;2023-03-02T00:41:17;2.00;99.90
28244;DHT22;15510;52.512;13.300;2023-03-02T00:43:46;2.00;99.90
28244;DHT22;15510;52.512;13.300;2023-03-02T00:46:14;2.00;99.90
28244;DHT22;15510;52.512;13.300;2023-03-02T00:48:41;1.90;99.90
28244;DHT22;15510;52.512;13.300;2023-03-02T00:51:07;1.90;99.90
28244;DHT22;15510;52.512;13.300;2023-03-02T00:53:34;1.80;99.90
28244;DHT22;15510;52.512;13.300;2023-03-02T00:55:59;1.90;99.90
28244;DHT22;15510;52.512;13.300;2023-03-02T00:58:26;1.90;99.90
28244;DHT22;15510;52.512;13.300;2023-03-02T01:00:54;1.90;99.90
28244;DHT22;15510;52.512;13.300;2023-03-02T01:03:20;2.00;99.90
28244;DHT22;15510;52.512;13.300;2023-03-02T01:05:46;2.00;99.90
28244;DHT22;15510;52.512;13.300;2023-03-02T01:08:12;2.00;99.90
28244;DHT22;15510;52.512;13.300;2023-03-02T01:10:38;2.10;99.90
28244;DHT22;15510;52.512;13.300;2023-03-02T01:13:04;2.10;99.90
28244;DHT22;15510;52.512;13.300;2023-03-02T01:15:31;2.00;99.90
28244;DHT22;15510;52.512;13.300;2023-03-02T01:17:59;2.00;99.90
28244;DHT22;15510;52.512;13.300;2023-03-02T01:20:25;2.00;99.90
28244;DHT22;15510;52.512;13.300;2023-03-02T01:22:51;2.00;99.90
28244;DHT22;15510;52.512;13.300;2023-03-02T01:25:16;2.00;99.90
28244;DHT22;15510;52.512;13.300;2023-03-02T01:27:42;2.00;99.90
28244;DHT22;15510;52.512;13.300;2023-03-02T01:30:09;1.90;99.90
28244;DHT22;15510;52.512;13.300;2023-03-02T01:32:34;1.90;99.90
28244;DHT22;15510;52.512;13.300;2023-03-02T01:35:00;1.90;99.90
28244;DHT22;15510;52.512;13.300;2023-03-02T01:37:26;1.80;99.90
28244;DHT22;15510;52.512;13.300;2023-03-02T01:39:52;1.80;99.90
28244;DHT22;15510;52.512;13.300;2023-03-02T01:48:19;1.80;99.90
28244;DHT22;15510;52.512;13.300;2023-03-02T01:50:46;1.80;99.90
28244;DHT22;15510;52.512;13.300;2023-03-02T01:53:14;1.80;99.90
28244;DHT22;15510;52.512;13.300;2023-03-02T01:55:42;1.80;99.90
28244;DHT22;15510;52.512;13.300;2023-03-02T01:58:11;1.80;99.90
28244;DHT22;15510;52.512;13.300;2023-03-02T02:00:38;1.80;99.90
28244;DHT22;15510;52.512;13.300;2023-03-02T02:03:09;1.80;99.90
28244;DHT22;15510;52.512;13.300;2023-03-02T02:05:38;1.80;99.90
28244;DHT22;15510;52.512;13.300;2023-03-02T02:08:04;1.70;99.90
28244;DHT22;15510;52.512;13.300;2023-03-02T02:10:32;1.70;99.90
28244;DHT22;15510;52.512;13.300;2023-03-02T02:12:58;1.70;99.90
28244;DHT22;15510;52.512;13.300;2023-03-02T02:15:24;1.70;99.90
28244;DHT22;15510;52.512;13.300;2023-03-02T02:17:51;1.70;99.90
28244;DHT22;15510;52.512;13.300;2023-03-02T02:20:38;1.60;99.90
28244;DHT22;15510;52.512;13.300;2023-03-02T02:28:41;1.60;99.90
28244;DHT22;15510;52.512;13.300;2023-03-02T02:31:09;1.60;99.90
28244;DHT22;15510;52.512;13.300;2023-03-02T02:33:40;1.60;99.90
28244;DHT22;15510;52.512;13.300;2023-03-02T02:36:17;1.70;99.90
28244;DHT22;15510;52.512;13.300;2023-03-02T02:38:46;1.60;99.90
28244;DHT22;15510;52.512;13.300;2023-03-02T02:41:24;1.60;99.90
28244;DHT22;15510;52.512;13.300;2023-03-02T02:43:52;1.60;99.90
28244;DHT22;15510;52.512;13.300;2023-03-02T02:46:18;1.60;99.90
28244;DHT22;15510;52.512;13.300;2023-03-02T02:48:44;1.50;99.90
28244;DHT22;15510;52.512;13.300;2023-03-02T02:51:14;1.50;99.90
28244;DHT22;15510;52.512;13.300;2023-03-02T02:53:52;1.50;99.90
28244;DHT22;15510;52.512;13.300;2023-03-02T02:56:32;1.50;99.90
28244;DHT22;15510;52.512;13.300;2023-03-02T02:59:12;1.50;99.90
28244;DHT22;15510;52.512;13.300;2023-03-02T03:01:39;1.50;99.90
28244;DHT22;15510;52.512;13.300;2023-03-02T03:04:05;1.50;99.90
28244;DHT22;15510;52.512;13.300;2023-03-02T03:06:34;1.50;99.90
28244;DHT22;15510;52.512;13.300;2023-03-02T03:09:07;1.50;99.90
28244;DHT22;15510;52.512;13.300;2023-03-02T03:11:41;1.50;99.90
28244;DHT22;15510;52.512;13.300;2023-03-02T03:14:16;1.50;99.90
28244;DHT22;15510;52.512;13.300;2023-03-02T03:16:47;1.50;99.90
28244;DHT22;15510;52.512;13.300;2023-03-02T03:19:30;1.50;99.90
28244;DHT22;15510;52.512;13.300;2023-03-02T03:22:01;1.50;99.90
28244;DHT22;15510;52.512;13.300;2023-03-02T03:24:32;1.40;99.90
28244;DHT22;15510;52.512;13.300;2023-03-02T03:27:00;1.50;99.90
28244;DHT22;15510;52.512;13.300;2023-03-02T03:29:31;1.50;99.90
28244;DHT22;15510;52.512;13.300;2023-03-02T03:32:00;1.50;99.90
28244;DHT22;15510;52.512;13.300;2023-03-02T03:34:28;1.40;99.90
28244;DHT22;15510;52.512;13.300;2023-03-02T03:36:55;1.40;99.90
28244;DHT22;15510;52.512;13.300;2023-03-02T03:39:29;1.40;99.90
28244;DHT22;15510;52.512;13.300;2023-03-02T03:41:55;1.40;99.90
28244;DHT22;15510;52.512;13.300;2023-03-02T03:44:21;1.40;99.90
28244;DHT22;15510;52.512;13.300;2023-03-02T03:46:48;1.40;99.90
28244;DHT22;15510;52.512;13.300;2023-03-02T03:49:14;1.30;99.90
28244;DHT22;15510;52.512;13.300;2023-03-02T03:51:40;1.30;99.90
28244;DHT22;15510;52.512;13.300;2023-03-02T03:54:07;1.20;99.90
28244;DHT22;15510;52.512;13.300;2023-03-02T03:56:41;1.20;99.90
28244;DHT22;15510;52.512;13.300;2023-03-02T03:59:10;1.20;99.90
28244;DHT22;15510;52.512;13.300;2023-03-02T04:01:54;1.20;99.90
28244;DHT22;15510;52.512;13.300;2023-03-02T04:04:31;1.20;99.90
28244;DHT22;15510;52.512;13.300;2023-03-02T04:06:58;1.20;99.90
28244;DHT22;15510;52.512;13.300;2023-03-02T04:09:25;1.10;99.90
28244;DHT22;15510;52.512;13.300;2023-03-02T04:11:54;1.10;99.90
28244;DHT22;15510;52.512;13.300;2023-03-02T04:14:21;1.10;99.90
28244;DHT22;15510;52.512;13.300;2023-03-02T04:16:50;1.10;99.90
28244;DHT22;15510;52.512;13.300;2023-03-02T04:19:16;1.10;99.90
28244;DHT22;15510;52.512;13.300;2023-03-02T04:21:46;1.00;99.90
28244;DHT22;15510;52.512;13.300;2023-03-02T04:24:16;1.10;99.90
28244;DHT22;15510;52.512;13.300;2023-03-02T04:26:44;1.10;99.90
28244;DHT22;15510;52.512;13.300;2023-03-02T04:29:11;1.00;99.90
28244;DHT22;15510;52.512;13.300;2023-03-02T04:31:38;1.00;99.90
28244;DHT22;15510;52.512;13.300;2023-03-02T04:34:05;1.00;99.90
28244;DHT22;15510;52.512;13.300;2023-03-02T04:36:34;1.00;99.90
28244;DHT22;15510;52.512;13.300;2023-03-02T04:39:04;1.00;99.90
28244;DHT22;15510;52.512;13.300;2023-03-02T04:41:31;1.00;99.90
28244;DHT22;15510;52.512;13.300;2023-03-02T04:43:56;0.90;99.90
28244;DHT22;15510;52.512;13.300;2023-03-02T04:46:24;0.90;99.90
28244;DHT22;15510;52.512;13.300;2023-03-02T04:48:50;0.90;99.90
28244;DHT22;15510;52.512;13.300;2023-03-02T04:51:22;0.90;99.90
28244;DHT22;15510;52.512;13.300;2023-03-02T04:53:50;0.80;99.90
28244;DHT22;15510;52.512;13.300;2023-03-02T04:56:16;0.80;99.90
28244;DHT22;15510;52.512;13.300;2023-03-02T04:58:43;0.80;99.90
28244;DHT22;15510;52.512;13.300;2023-03-02T05:01:09;0.70;99.90
28244;DHT22;15510;52.512;13.300;2023-03-02T05:03:35;0.70;99.90
28244;DHT22;15510;52.512;13.300;2023-03-02T05:06:01;0.70;99.90
28244;DHT22;15510;52.512;13.300;2023-03-02T05:08:31;0.70;99.90
28244;DHT22;15510;52.512;13.300;2023-03-02T05:10:58;0.70;99.90
28244;DHT22;15510;52.512;13.300;2023-03-02T05:13:25;0.70;99.90
28244;DHT22;15510;52.512;13.300;2023-03-02T05:15:52;0.70;99.90
28244;DHT22;15510;52.512;13.300;2023-03-02T05:18:19;0.70;99.90
28244;DHT22;15510;52.512;13.300;2023-03-02T05:20:45;0.70;99.90
28244;DHT22;15510;52.512;13.300;2023-03-02T05:23:13;0.60;99.90
28244;DHT22;15510;52.512;13.300;2023-03-02T05:25:50;0.50;99.90
28244;DHT22;15510;52.512;13.300;2023-03-02T05:28:17;0.50;99.90
28244;DHT22;15510;52.512;13.300;2023-03-02T05:30:43;0.50;99.90
28244;DHT22;15510;52.512;13.300;2023-03-02T05:33:09;0.50;99.90
28244;DHT22;15510;52.512;13.300;2023-03-02T05:35:35;0.60;99.90
28244;DHT22;15510;52.512;13.300;2023-03-02T05:38:00;0.50;99.90
28244;DHT22;15510;52.512;13.300;2023-03-02T05:40:26;0.50;99.90
28244;DHT22;15510;52.512;13.300;2023-03-02T05:42:52;0.60;99.90
28244;DHT22;15510;52.512;13.300;2023-03-02T05:45:25;0.60;99.90
28244;DHT22;15510;52.512;13.300;2023-03-02T05:47:52;0.60;99.90
28244;DHT22;15510;52.512;13.300;2023-03-02T05:50:17;0.60;99.90
28244;DHT22;15510;52.512;13.300;2023-03-02T05:52:43;0.50;99.90
28244;DHT22;15510;52.512;13.300;2023-03-02T05:55:13;0.50;99.90
28244;DHT22;15510;52.512;13.300;2023-03-02T05:57:39;0.60;99.90
28244;DHT22;15510;52.512;13.300;2023-03-02T06:00:06;0.50;99.90
28244;DHT22;15510;52.512;13.300;2023-03-02T06:02:38;0.50;99.90
28244;DHT22;15510;52.512;13.300;2023-03-02T06:05:06;0.50;99.90
28244;DHT22;15510;52.512;13.300;2023-03-02T06:07:32;0.50;99.90
28244;DHT22;15510;52.512;13.300;2023-03-02T06:09:58;0.50;99.90
28244;DHT22;15510;52.512;13.300;2023-03-02T06:12:24;0.40;99.90
28244;DHT22;15510;52.512;13.300;2023-03-02T06:14:49;0.50;99.90
28244;DHT22;15510;52.512;13.300;2023-03-02T06:17:15;0.50;99.90
28244;DHT22;15510;52.512;13.300;2023-03-02T06:19:41;0.50;99.90
28244;DHT22;15510;52.512;13.300;2023-03-02T06:22:07;0.40;99.90
28244;DHT22;15510;52.512;13.300;2023-03-02T06:24:33;0.40;99.90
28244;DHT22;15510;52.512;13.300;2023-03-02T06:26:58;0.40;99.90
28244;DHT22;15510;52.512;13.300;2023-03-02T06:29:24;0.40;99.90
28244;DHT22;15510;52.512;13.300;2023-03-02T06:31:50;0.40;99.90
28244;DHT22;15510;52.512;13.300;2023-03-02T06:34:16;0.40;99.90
28244;DHT22;15510;52.512;13.300;2023-03-02T06:36:41;0.40;99.90
28244;DHT22;15510;52.512;13.300;2023-03-02T06:39:07;0.40;99.90
28244;DHT22;15510;52.512;13.300;2023-03-02T06:41:44;0.40;99.90
28244;DHT22;15510;52.512;13.300;2023-03-02T06:44:11;0.40;99.90
28244;DHT22;15510;52.512;13.300;2023-03-02T06:46:38;0.40;99.90
28244;DHT22;15510;52.512;13.300;2023-03-02T06:49:04;0.40;99.90
28244;DHT22;15510;52.512;13.300;2023-03-02T06:51:30;0.40;99.90
28244;DHT22;15510;52.512;13.300;2023-03-02T06:53:56;0.40;99.90
28244;DHT22;15510;52.512;13.300;2023-03-02T06:56:21;0.30;99.90
28244;DHT22;15510;52.512;13.300;2023-03-02T06:58:47;0.30;99.90
28244;DHT22;15510;52.512;13.300;2023-03-02T07:01:13;0.30;99.90
28244;DHT22;15510;52.512;13.300;2023-03-02T07:03:39;0.30;99.90
28244;DHT22;15510;52.512;13.300;2023-03-02T07:06:05;0.20;99.90
28244;DHT22;15510;52.512;13.300;2023-03-02T07:08:31;0.30;99.90
28244;DHT22;15510;52.512;13.300;2023-03-02T07:10:57;0.20;99.90
28244;DHT22;15510;52.512;13.300;2023-03-02T07:13:23;0.20;99.90
28244;DHT22;15510;52.512;13.300;2023-03-02T07:15:48;0.30;99.90
28244;DHT22;15510;52.512;13.300;2023-03-02T07:18:14;0.30;99.90
28244;DHT22;15510;52.512;13.300;2023-03-02T07:20:40;0.30;99.90
28244;DHT22;15510;52.512;13.300;2023-03-02T07:23:05;0.40;99.90
28244;DHT22;15510;52.512;13.300;2023-03-02T07:25:31;0.40;99.90
28244;DHT22;15510;52.512;13.300;2023-03-02T07:27:57;0.40;99.90
28244;DHT22;15510;52.512;13.300;2023-03-02T07:30:24;0.60;99.90
28244;DHT22;15510;52.512;13.300;2023-03-02T07:32:50;0.60;99.90
28244;DHT22;15510;52.512;13.300;2023-03-02T07:35:16;0.60;99.90
28244;DHT22;15510;52.512;13.300;2023-03-02T07:37:42;0.70;99.90
28244;DHT22;15510;52.512;13.300;2023-03-02T07:40:10;0.70;99.90
28244;DHT22;15510;52.512;13.300;2023-03-02T07:42:37;0.70;99.90
28244;DHT22;15510;52.512;13.300;2023-03-02T07:45:04;0.80;99.90
28244;DHT22;15510;52.512;13.300;2023-03-02T07:47:31;0.80;99.90
28244;DHT22;15510;52.512;13.300;2023-03-02T07:49:56;0.90;99.90
28244;DHT22;15510;52.512;13.300;2023-03-02T07:52:22;0.90;99.90
28244;DHT22;15510;52.512;13.300;2023-03-02T07:54:48;0.90;99.90
28244;DHT22;15510;52.512;13.300;2023-03-02T07:57:14;0.90;99.90
28244;DHT22;15510;52.512;13.300;2023-03-02T07:59:43;0.80;99.90
28244;DHT22;15510;52.512;13.300;2023-03-02T08:02:14;0.90;99.90
28244;DHT22;15510;52.512;13.300;2023-03-02T08:04:41;1.00;99.90
28244;DHT22;15510;52.512;13.300;2023-03-02T08:07:07;1.00;99.90
28244;DHT22;15510;52.512;13.300;2023-03-02T08:09:32;1.10;99.90
28244;DHT22;15510;52.512;13.300;2023-03-02T08:11:58;1.10;99.90
28244;DHT22;15510;52.512;13.300;2023-03-02T08:14:25;1.20;99.90
28244;DHT22;15510;52.512;13.300;2023-03-02T08:16:51;1.20;99.90
28244;DHT22;15510;52.512;13.300;2023-03-02T08:19:18;1.30;99.90
28244;DHT22;15510;52.512;13.300;2023-03-02T08:21:44;1.40;99.90
28244;DHT22;15510;52.512;13.300;2023-03-02T08:24:11;1.40;99.90
28244;DHT22;15510;52.512;13.300;2023-03-02T08:26:37;1.50;99.90
28244;DHT22;15510;52.512;13.300;2023-03-02T08:29:03;1.50;99.90
28244;DHT22;15510;52.512;13.300;2023-03-02T08:31:29;1.50;99.90
28244;DHT22;15510;52.512;13.300;2023-03-02T08:33:55;1.60;99.90
28244;DHT22;15510;52.512;13.300;2023-03-02T08:36:21;1.60;99.90
28244;DHT22;15510;52.512;13.300;2023-03-02T08:38:48;1.60;99.90
28244;DHT22;15510;52.512;13.300;2023-03-02T08:41:23;1.60;99.90
28244;DHT22;15510;52.512;13.300;2023-03-02T08:43:49;1.90;99.90
28244;DHT22;15510;52.512;13.300;2023-03-02T08:46:18;1.90;99.90
28244;DHT22;15510;52.512;13.300;2023-03-02T08:48:45;2.00;99.90
28244;DHT22;15510;52.512;13.300;2023-03-02T08:51:14;2.10;99.90
28244;DHT22;15510;52.512;13.300;2023-03-02T08:53:42;2.10;99.90
28244;DHT22;15510;52.512;13.300;2023-03-02T08:58:47;2.20;99.90
28244;DHT22;15510;52.512;13.300;2023-03-02T09:01:19;2.20;99.90
28244;DHT22;15510;52.512;13.300;2023-03-02T09:03:45;2.30;99.90
28244;DHT22;15510;52.512;13.300;2023-03-02T09:06:11;2.40;99.90
28244;DHT22;15510;52.512;13.300;2023-03-02T09:08:37;2.40;99.90
28244;DHT22;15510;52.512;13.300;2023-03-02T09:11:03;2.40;99.90
28244;DHT22;15510;52.512;13.300;2023-03-02T09:13:29;2.50;99.90
28244;DHT22;15510;52.512;13.300;2023-03-02T09:15:55;2.70;99.90
28244;DHT22;15510;52.512;13.300;2023-03-02T09:18:21;2.70;99.90
28244;DHT22;15510;52.512;13.300;2023-03-02T09:20:50;2.70;99.90
28244;DHT22;15510;52.512;13.300;2023-03-02T09:23:17;2.80;99.90
28244;DHT22;15510;52.512;13.300;2023-03-02T09:25:43;2.80;99.90
28244;DHT22;15510;52.512;13.300;2023-03-02T09:28:09;2.60;99.90
28244;DHT22;15510;52.512;13.300;2023-03-02T09:30:35;2.80;99.90
28244;DHT22;15510;52.512;13.300;2023-03-02T09:33:01;2.80;99.90
28244;DHT22;15510;52.512;13.300;2023-03-02T09:35:26;2.80;99.90
28244;DHT22;15510;52.512;13.300;2023-03-02T09:37:52;2.90;99.90
28244;DHT22;15510;52.512;13.300;2023-03-02T09:40:20;2.90;99.90
28244;DHT22;15510;52.512;13.300;2023-03-02T09:56:23;3.00;99.90
28244;DHT22;15510;52.512;13.300;2023-03-02T09:59:01;3.20;99.90
28244;DHT22;15510;52.512;13.300;2023-03-02T10:01:42;3.30;99.90
28244;DHT22;15510;52.512;13.300;2023-03-02T10:04:38;3.30;99.90
28244;DHT22;15510;52.512;13.300;2023-03-02T10:07:29;3.40;99.90
28244;DHT22;15510;52.512;13.300;2023-03-02T10:10:16;3.50;99.90
28244;DHT22;15510;52.512;13.300;2023-03-02T10:15:47;3.60;99.90
28244;DHT22;15510;52.512;13.300;2023-03-02T10:21:04;3.80;99.90
28244;DHT22;15510;52.512;13.300;2023-03-02T10:26:32;3.80;99.90
28244;DHT22;15510;52.512;13.300;2023-03-02T10:31:43;3.80;99.90
28244;DHT22;15510;52.512;13.300;2023-03-02T10:34:10;4.00;99.90
28244;DHT22;15510;52.512;13.300;2023-03-02T10:36:38;4.00;99.90
28244;DHT22;15510;52.512;13.300;2023-03-02T10:39:15;4.10;99.90
28244;DHT22;15510;52.512;13.300;2023-03-02T10:42:01;4.20;99.90
28244;DHT22;15510;52.512;13.300;2023-03-02T10:44:31;4.10;99.90
28244;DHT22;15510;52.512;13.300;2023-03-02T10:46:57;4.40;99.90
28244;DHT22;15510;52.512;13.300;2023-03-02T10:52:22;4.60;99.90
28244;DHT22;15510;52.512;13.300;2023-03-02T10:54:48;4.70;99.90
28244;DHT22;15510;52.512;13.300;2023-03-02T10:57:28;4.60;99.90
28244;DHT22;15510;52.512;13.300;2023-03-02T11:00:00;4.70;99.90
28244;DHT22;15510;52.512;13.300;2023-03-02T11:02:27;4.50;99.90
28244;DHT22;15510;52.512;13.300;2023-03-02T11:08:00;4.80;99.90
28244;DHT22;15510;52.512;13.300;2023-03-02T11:10:39;4.80;99.90
28244;DHT22;15510;52.512;13.300;2023-03-02T11:13:18;4.90;99.90
28244;DHT22;15510;52.512;13.300;2023-03-02T11:15:50;5.00;99.90
28244;DHT22;15510;52.512;13.300;2023-03-02T11:18:39;5.40;99.90
28244;DHT22;15510;52.512;13.300;2023-03-02T11:21:10;5.50;99.90
28244;DHT22;15510;52.512;13.300;2023-03-02T11:24:01;5.60;99.90
28244;DHT22;15510;52.512;13.300;2023-03-02T11:26:37;5.70;99.90
28244;DHT22;15510;52.512;13.300;2023-03-02T11:32:01;6.30;99.90
28244;DHT22;15510;52.512;13.300;2023-03-02T11:34:45;7.00;99.90
28244;DHT22;15510;52.512;13.300;2023-03-02T11:37:41;7.20;99.90
28244;DHT22;15510;52.512;13.300;2023-03-02T11:40:29;7.30;99.90
28244;DHT22;15510;52.512;13.300;2023-03-02T11:42:58;7.20;99.90
28244;DHT22;15510;52.512;13.300;2023-03-02T11:45:29;7.60;99.90
28244;DHT22;15510;52.512;13.300;2023-03-02T11:48:03;7.60;99.90
28244;DHT22;15510;52.512;13.300;2023-03-02T11:50:35;7.70;99.90
28244;DHT22;15510;52.512;13.300;2023-03-02T11:53:09;7.90;99.90
28244;DHT22;15510;52.512;13.300;2023-03-02T11:55:47;8.20;99.90
28244;DHT22;15510;52.512;13.300;2023-03-02T11:58:23;8.00;99.90
28244;DHT22;15510;52.512;13.300;2023-03-02T12:00:50;8.50;99.90
28244;DHT22;15510;52.512;13.300;2023-03-02T12:03:36;8.70;99.90
28244;DHT22;15510;52.512;13.300;2023-03-02T12:08:45;8.70;99.90
28244;DHT22;15510;52.512;13.300;2023-03-02T12:13:59;8.70;99.90
28244;DHT22;15510;52.512;13.300;2023-03-02T12:16:37;8.90;99.90
28244;DHT22;15510;52.512;13.300;2023-03-02T12:21:59;8.50;99.90
28244;DHT22;15510;52.512;13.300;2023-03-02T12:24:29;8.60;99.90
28244;DHT22;15510;52.512;13.300;2023-03-02T12:27:05;8.50;99.90
28244;DHT22;15510;52.512;13.300;2023-03-02T12:29:48;8.80;99.90
28244;DHT22;15510;52.512;13.300;2023-03-02T12:37:48;9.50;99.90
28244;DHT22;15510;52.512;13.300;2023-03-02T12:40:42;9.30;99.90
28244;DHT22;15510;52.512;13.300;2023-03-02T12:49:40;10.60;99.90
28244;DHT22;15510;52.512;13.300;2023-03-02T12:52:29;11.30;99.90
28244;DHT22;15510;52.512;13.300;2023-03-02T12:57:30;11.40;99.90
28244;DHT22;15510;52.512;13.300;2023-03-02T12:59:58;11.20;99.90
28244;DHT22;15510;52.512;13.300;2023-03-02T13:02:34;11.30;99.90
28244;DHT22;15510;52.512;13.300;2023-03-02T13:05:05;11.60;99.90
28244;DHT22;15510;52.512;13.300;2023-03-02T13:10:11;12.10;99.90
28244;DHT22;15510;52.512;13.300;2023-03-02T13:12:43;12.50;99.90
28244;DHT22;15510;52.512;13.300;2023-03-02T13:15:14;12.50;99.90
28244;DHT22;15510;52.512;13.300;2023-03-02T13:17:40;12.40;99.90
28244;DHT22;15510;52.512;13.300;2023-03-02T13:20:08;12.60;99.90
28244;DHT22;15510;52.512;13.300;2023-03-02T13:22:53;12.30;99.90
28244;DHT22;15510;52.512;13.300;2023-03-02T13:25:30;12.30;99.90
28244;DHT22;15510;52.512;13.300;2023-03-02T13:27:58;12.10;99.90
28244;DHT22;15510;52.512;13.300;2023-03-02T13:30:33;11.60;99.90
28244;DHT22;15510;52.512;13.300;2023-03-02T13:33:16;10.50;99.90
28244;DHT22;15510;52.512;13.300;2023-03-02T13:35:45;9.70;99.90
28244;DHT22;15510;52.512;13.300;2023-03-02T13:38:16;8.90;99.90
28244;DHT22;15510;52.512;13.300;2023-03-02T13:40:44;8.20;99.90
28244;DHT22;15510;52.512;13.300;2023-03-02T13:45:56;7.40;99.90
28244;DHT22;15510;52.512;13.300;2023-03-02T13:48:22;7.10;99.90
28244;DHT22;15510;52.512;13.300;2023-03-02T13:51:00;6.80;99.90
28244;DHT22;15510;52.512;13.300;2023-03-02T13:53:29;6.60;99.90
28244;DHT22;15510;52.512;13.300;2023-03-02T13:55:57;6.40;99.90
28244;DHT22;15510;52.512;13.300;2023-03-02T13:58:25;6.30;99.90
28244;DHT22;15510;52.512;13.300;2023-03-02T14:00:52;6.20;99.90
28244;DHT22;15510;52.512;13.300;2023-03-02T14:03:29;6.10;99.90
28244;DHT22;15510;52.512;13.300;2023-03-02T14:05:56;6.10;99.90
28244;DHT22;15510;52.512;13.300;2023-03-02T14:08:22;6.00;99.90
28244;DHT22;15510;52.512;13.300;2023-03-02T14:10:51;5.80;99.90
28244;DHT22;15510;52.512;13.300;2023-03-02T14:13:27;5.80;99.90
28244;DHT22;15510;52.512;13.300;2023-03-02T14:15:54;5.70;99.90
28244;DHT22;15510;52.512;13.300;2023-03-02T14:18:28;5.70;99.90
28244;DHT22;15510;52.512;13.300;2023-03-02T14:20:54;5.70;99.90
28244;DHT22;15510;52.512;13.300;2023-03-02T14:23:21;5.60;99.90
28244;DHT22;15510;52.512;13.300;2023-03-02T14:25:49;5.50;99.90
28244;DHT22;15510;52.512;13.300;2023-03-02T14:28:28;5.50;99.90
28244;DHT22;15510;52.512;13.300;2023-03-02T14:30:56;5.40;99.90
28244;DHT22;15510;52.512;13.300;2023-03-02T14:33:23;5.50;99.90
28244;DHT22;15510;52.512;13.300;2023-03-02T14:35:51;5.40;99.90
28244;DHT22;15510;52.512;13.300;2023-03-02T14:38:20;5.40;99.90
28244;DHT22;15510;52.512;13.300;2023-03-02T14:40:46;5.30;99.90
28244;DHT22;15510;52.512;13.300;2023-03-02T14:43:12;5.30;99.90
28244;DHT22;15510;52.512;13.300;2023-03-02T14:45:37;5.20;99.90
28244;DHT22;15510;52.512;13.300;2023-03-02T14:48:03;5.10;99.90
28244;DHT22;15510;52.512;13.300;2023-03-02T14:50:30;5.20;99.90
28244;DHT22;15510;52.512;13.300;2023-03-02T14:52:57;5.00;99.90
28244;DHT22;15510;52.512;13.300;2023-03-02T14:55:24;5.00;99.90
28244;DHT22;15510;52.512;13.300;2023-03-02T14:58:14;4.90;99.90
28244;DHT22;15510;52.512;13.300;2023-03-02T15:00:39;4.90;99.90
28244;DHT22;15510;52.512;13.300;2023-03-02T15:03:05;4.80;99.90
28244;DHT22;15510;52.512;13.300;2023-03-02T15:05:31;4.80;99.90
28244;DHT22;15510;52.512;13.300;2023-03-02T15:07:57;4.80;99.90
28244;DHT22;15510;52.512;13.300;2023-03-02T15:10:23;4.70;99.90
28244;DHT22;15510;52.512;13.300;2023-03-02T15:12:49;4.60;99.90
28244;DHT22;15510;52.512;13.300;2023-03-02T15:15:16;4.60;99.90
28244;DHT22;15510;52.512;13.300;2023-03-02T15:17:41;4.40;99.90
28244;DHT22;15510;52.512;13.300;2023-03-02T15:20:13;4.40;99.90
28244;DHT22;15510;52.512;13.300;2023-03-02T15:22:39;4.40;99.90
28244;DHT22;15510;52.512;13.300;2023-03-02T15:25:05;4.30;99.90
28244;DHT22;15510;52.512;13.300;2023-03-02T15:27:31;4.30;99.90
28244;DHT22;15510;52.512;13.300;2023-03-02T15:29:56;4.20;99.90
28244;DHT22;15510;52.512;13.300;2023-03-02T15:32:22;4.20;99.90
28244;DHT22;15510;52.512;13.300;2023-03-02T15:34:48;4.10;99.90
28244;DHT22;15510;52.512;13.300;2023-03-02T15:37:14;4.10;99.90
28244;DHT22;15510;52.512;13.300;2023-03-02T15:39:40;3.90;99.90
28244;DHT22;15510;52.512;13.300;2023-03-02T15:42:06;3.80;99.90
28244;DHT22;15510;52.512;13.300;2023-03-02T15:44:32;3.70;99.90
28244;DHT22;15510;52.512;13.300;2023-03-02T15:46:58;3.50;99.90
28244;DHT22;15510;52.512;13.300;2023-03-02T15:49:25;3.40;99.90
28244;DHT22;15510;52.512;13.300;2023-03-02T15:51:56;3.40;99.90
28244;DHT22;15510;52.512;13.300;2023-03-02T15:54:24;3.30;99.90
28244;DHT22;15510;52.512;13.300;2023-03-02T15:56:50;3.40;99.90
28244;DHT22;15510;52.512;13.300;2023-03-02T15:59:28;3.40;99.90
28244;DHT22;15510;52.512;13.300;2023-03-02T16:01:54;3.40;99.90
28244;DHT22;15510;52.512;13.300;2023-03-02T16:04:28;3.30;99.90
28244;DHT22;15510;52.512;13.300;2023-03-02T16:06:55;3.30;99.90
28244;DHT22;15510;52.512;13.300;2023-03-02T16:09:21;3.30;99.90
28244;DHT22;15510;52.512;13.300;2023-03-02T16:11:48;3.30;99.90
28244;DHT22;15510;52.512;13.300;2023-03-02T16:14:14;3.30;99.90
28244;DHT22;15510;52.512;13.300;2023-03-02T16:16:41;3.30;99.90
28244;DHT22;15510;52.512;13.300;2023-03-02T16:19:10;3.20;99.90
28244;DHT22;15510;52.512;13.300;2023-03-02T16:21:38;3.20;99.90
28244;DHT22;15510;52.512;13.300;2023-03-02T16:24:04;3.20;99.90
28244;DHT22;15510;52.512;13.300;2023-03-02T16:26:33;3.20;99.90
28244;DHT22;15510;52.512;13.300;2023-03-02T16:29:00;3.20;99.90
28244;DHT22;15510;52.512;13.300;2023-03-02T16:31:27;3.10;99.90
28244;DHT22;15510;52.512;13.300;2023-03-02T16:33:54;3.10;99.90
28244;DHT22;15510;52.512;13.300;2023-03-02T16:36:21;3.10;99.90
28244;DHT22;15510;52.512;13.300;2023-03-02T16:38:47;3.10;99.90
28244;DHT22;15510;52.512;13.300;2023-03-02T16:41:21;3.30;99.90
28244;DHT22;15510;52.512;13.300;2023-03-02T16:43:50;3.40;99.90
28244;DHT22;15510;52.512;13.300;2023-03-02T16:46:17;3.20;99.90
28244;DHT22;15510;52.512;13.300;2023-03-02T16:48:44;3.20;99.90
28244;DHT22;15510;52.512;13.300;2023-03-02T16:51:10;3.10;99.90
28244;DHT22;15510;52.512;13.300;2023-03-02T16:53:36;3.10;99.90
28244;DHT22;15510;52.512;13.300;2023-03-02T16:56:02;3.10;99.90
28244;DHT22;15510;52.512;13.300;2023-03-02T16:58:28;3.10;99.90
28244;DHT22;15510;52.512;13.300;2023-03-02T17:00:54;3.10;99.90